createdAt,value
2019-04-30T00:01:55.052Z,11.70
2019-04-30T00:04:19.029Z,11.70
2019-04-30T00:06:59.151Z,11.60
2019-04-30T00:09:35.030Z,11.50
2019-04-30T00:12:11.617Z,11.50
2019-04-30T00:14:47.014Z,11.40
2019-04-30T00:17:28.637Z,11.30
2019-04-30T00:19:55.842Z,11.20
2019-04-30T00:22:30.951Z,11.20
2019-04-30T00:24:51.899Z,11.10
2019-04-30T00:27:26.383Z,11.10
2019-04-30T00:29:52.555Z,11.00
2019-04-30T00:32:22.086Z,11.00
2019-04-30T00:34:51.559Z,10.90
2019-04-30T00:37:21.065Z,10.80
2019-04-30T00:39:51.578Z,10.80
2019-04-30T00:42:24.447Z,10.70
2019-04-30T00:44:53.083Z,10.60
2019-04-30T00:47:22.555Z,10.50
2019-04-30T00:49:56.314Z,10.50
2019-04-30T00:52:25.195Z,10.40
2019-04-30T00:54:55.320Z,10.30
2019-04-30T00:57:26.529Z,10.30
2019-04-30T00:59:56.259Z,10.20
2019-04-30T01:02:42.850Z,10.20
2019-04-30T01:05:15.773Z,10.10
2019-04-30T01:07:50.753Z,10.10
2019-04-30T01:10:19.616Z,10.10
2019-04-30T01:12:50.295Z,10.00
2019-04-30T01:15:19.153Z,9.90
2019-04-30T01:17:50.964Z,9.90
2019-04-30T01:20:24.061Z,9.90
2019-04-30T01:22:51.701Z,9.80
2019-04-30T01:25:21.221Z,9.80
2019-04-30T01:27:51.806Z,9.70
2019-04-30T01:30:22.892Z,9.70
2019-04-30T01:32:56.887Z,9.60
2019-04-30T01:35:28.040Z,9.60
2019-04-30T01:37:54.809Z,9.50
2019-04-30T01:40:24.271Z,9.50
2019-04-30T01:42:53.908Z,9.50
2019-04-30T01:45:30.146Z,9.40
2019-04-30T01:47:54.544Z,9.40
2019-04-30T01:50:24.020Z,9.40
2019-04-30T01:52:53.733Z,9.30
2019-04-30T01:55:49.815Z,9.30
2019-04-30T01:58:39.356Z,9.30
2019-04-30T02:01:14.024Z,9.20
2019-04-30T02:03:43.510Z,9.20
2019-04-30T02:06:13.000Z,9.20
2019-04-30T02:08:42.496Z,9.10
2019-04-30T02:11:11.960Z,9.10
2019-04-30T02:13:43.756Z,9.10
2019-04-30T02:16:15.263Z,9.10
2019-04-30T02:18:44.784Z,9.00
2019-04-30T02:21:14.248Z,9.00
2019-04-30T02:23:44.102Z,8.90
2019-04-30T02:26:13.607Z,8.90
2019-04-30T02:28:43.264Z,8.90
2019-04-30T02:31:12.748Z,8.80
2019-04-30T02:33:46.659Z,8.80
2019-04-30T02:36:35.098Z,8.70
2019-04-30T02:39:05.332Z,8.70
2019-04-30T02:41:36.133Z,8.60
2019-04-30T02:44:06.543Z,8.60
2019-04-30T02:46:40.485Z,8.60
2019-04-30T02:49:10.727Z,8.50
2019-04-30T02:51:42.516Z,8.50
2019-04-30T02:54:23.238Z,8.40
2019-04-30T02:57:15.702Z,8.40
2019-04-30T03:00:02.863Z,8.40
2019-04-30T03:02:33.328Z,8.40
2019-04-30T03:05:02.858Z,8.30
2019-04-30T03:07:32.332Z,8.30
2019-04-30T03:10:01.833Z,8.30
2019-04-30T03:12:33.750Z,8.30
2019-04-30T03:15:02.412Z,8.30
2019-04-30T03:18:00.573Z,8.20
2019-04-30T03:20:45.082Z,8.30
2019-04-30T03:23:14.578Z,8.20
2019-04-30T03:25:44.034Z,8.20
2019-04-30T03:28:13.829Z,8.20
2019-04-30T03:30:43.389Z,8.20
2019-04-30T03:33:13.611Z,8.20
2019-04-30T03:35:47.773Z,8.20
2019-04-30T03:38:14.790Z,8.10
2019-04-30T03:40:44.290Z,8.10
2019-04-30T03:43:14.014Z,8.20
2019-04-30T03:45:43.611Z,8.10
2019-04-30T03:48:13.081Z,8.20
2019-04-30T03:50:53.252Z,8.20
2019-04-30T03:53:20.143Z,8.20
2019-04-30T03:55:50.554Z,8.30
2019-04-30T03:58:21.417Z,8.30
2019-04-30T04:01:09.911Z,8.30
2019-04-30T04:04:00.186Z,8.40
2019-04-30T04:06:33.337Z,8.40
2019-04-30T04:09:10.475Z,8.50
2019-04-30T04:11:42.038Z,8.50
2019-04-30T04:14:12.075Z,8.50
2019-04-30T04:16:41.524Z,8.60
2019-04-30T04:19:13.054Z,8.70
2019-04-30T04:21:42.723Z,8.80
2019-04-30T04:24:12.187Z,8.80
2019-04-30T04:26:43.932Z,8.90
2019-04-30T04:29:12.839Z,9.00
2019-04-30T04:31:42.520Z,9.10
2019-04-30T04:34:12.056Z,9.20
2019-04-30T04:36:43.521Z,9.30
2019-04-30T04:39:13.079Z,9.50
2019-04-30T04:41:44.304Z,9.70
2019-04-30T04:44:13.897Z,9.80
2019-04-30T04:46:43.737Z,10.00
2019-04-30T04:49:13.274Z,10.20
2019-04-30T04:51:42.773Z,10.30
2019-04-30T04:54:12.287Z,10.50
2019-04-30T04:56:41.800Z,10.70
2019-04-30T04:59:11.262Z,10.80
2019-04-30T05:01:40.967Z,10.90
2019-04-30T05:04:11.793Z,11.00
2019-04-30T05:06:41.589Z,11.10
2019-04-30T05:09:11.031Z,11.20
2019-04-30T05:11:40.584Z,11.20
2019-04-30T05:14:10.968Z,11.40
2019-04-30T05:19:45.002Z,11.40
2019-04-30T05:22:35.867Z,11.60
2019-04-30T05:24:44.793Z,11.60
2019-04-30T05:27:15.934Z,11.70
2019-04-30T05:29:54.113Z,11.80
2019-04-30T05:32:25.920Z,11.80
2019-04-30T05:35:18.571Z,11.90
2019-04-30T05:41:21.643Z,12.10
2019-04-30T06:19:01.691Z,13.80
2019-04-30T06:21:33.623Z,13.90
2019-04-30T06:24:03.152Z,14.10
2019-04-30T06:26:32.665Z,14.20
2019-04-30T06:29:02.267Z,14.30
2019-04-30T06:31:37.295Z,14.40
2019-04-30T06:34:04.606Z,14.60
2019-04-30T06:36:34.073Z,14.60
2019-04-30T06:39:03.679Z,14.70
2019-04-30T06:41:33.223Z,14.70
2019-04-30T06:44:02.903Z,14.70
2019-04-30T06:46:34.819Z,14.90
2019-04-30T06:49:19.409Z,15.10
2019-04-30T06:52:17.479Z,15.20
2019-04-30T06:55:05.584Z,15.40
2019-04-30T06:57:38.723Z,15.50
2019-04-30T07:00:56.685Z,15.60
2019-04-30T07:03:49.167Z,15.80
2019-04-30T07:06:29.828Z,16.10
2019-04-30T07:12:52.863Z,16.30
2019-04-30T07:15:22.996Z,16.80
2019-04-30T07:17:55.537Z,17.10
2019-04-30T07:20:25.185Z,17.10
2019-04-30T07:23:02.216Z,17.00
2019-04-30T07:25:29.318Z,17.10
2019-04-30T07:27:59.829Z,17.30
2019-04-30T07:30:30.953Z,17.50
2019-04-30T07:33:02.989Z,17.50
2019-04-30T07:35:33.709Z,17.70
2019-04-30T07:38:11.996Z,18.00
2019-04-30T07:40:51.050Z,18.10
2019-04-30T07:45:00.570Z,18.30
2019-04-30T07:48:43.478Z,18.50
2019-04-30T07:51:20.535Z,18.40
2019-04-30T07:53:59.014Z,18.40
2019-04-30T07:56:40.871Z,18.60
2019-04-30T08:08:32.349Z,18.20
2019-04-30T08:14:42.748Z,17.70
2019-04-30T08:22:56.206Z,18.00
2019-04-30T08:25:25.668Z,18.30
2019-04-30T08:27:59.131Z,18.40
2019-04-30T08:30:29.892Z,18.50
2019-04-30T08:32:59.555Z,18.20
2019-04-30T08:35:29.718Z,18.30
2019-04-30T08:38:01.044Z,18.60
2019-04-30T08:40:43.105Z,18.60
2019-04-30T08:46:42.093Z,18.50
2019-04-30T08:49:15.323Z,18.80
2019-04-30T08:51:55.837Z,18.70
2019-04-30T08:58:09.283Z,18.70
2019-04-30T09:04:38.779Z,18.30
2019-04-30T09:11:21.808Z,19.10
2019-04-30T09:17:12.151Z,19.20
2019-04-30T09:19:41.729Z,19.80
2019-04-30T09:22:15.151Z,20.20
2019-04-30T09:24:42.511Z,20.30
2019-04-30T09:27:12.025Z,20.00
2019-04-30T09:29:44.639Z,19.50
2019-04-30T09:32:19.221Z,19.20
2019-04-30T09:35:10.538Z,19.30
2019-04-30T09:37:41.869Z,19.70
2019-04-30T09:40:14.767Z,19.80
2019-04-30T09:42:39.815Z,19.90
2019-04-30T09:45:15.346Z,20.10
2019-04-30T09:47:46.204Z,20.20
2019-04-30T09:50:25.022Z,20.60
2019-04-30T09:52:56.043Z,21.00
2019-04-30T09:55:31.534Z,20.80
2019-04-30T09:58:16.765Z,20.90
2019-04-30T10:00:40.306Z,20.70
2019-04-30T10:03:11.931Z,20.90
2019-04-30T10:05:49.036Z,20.70
2019-04-30T10:11:45.335Z,20.10
2019-04-30T10:14:16.531Z,20.50
2019-04-30T10:17:14.259Z,21.00
2019-04-30T10:19:49.159Z,21.20
2019-04-30T10:22:24.340Z,21.30
2019-04-30T10:24:59.686Z,21.40
2019-04-30T10:27:31.052Z,21.50
2019-04-30T10:30:11.623Z,21.00
2019-04-30T10:34:35.534Z,21.00
2019-04-30T10:35:18.362Z,20.70
2019-04-30T10:37:53.776Z,20.80
2019-04-30T10:40:29.615Z,20.80
2019-04-30T10:43:08.935Z,20.80
2019-04-30T10:46:03.211Z,20.30
2019-04-30T10:48:34.567Z,20.10
2019-04-30T10:51:08.921Z,20.40
2019-04-30T10:53:55.196Z,20.40
2019-04-30T10:56:29.038Z,20.20
2019-04-30T10:59:04.260Z,20.10
2019-04-30T11:01:40.974Z,20.10
2019-04-30T11:10:47.608Z,20.40
2019-04-30T11:13:17.601Z,19.90
2019-04-30T11:16:12.549Z,19.70
2019-04-30T11:18:51.382Z,19.40
2019-04-30T11:21:25.942Z,19.40
2019-04-30T11:24:02.356Z,19.70
2019-04-30T11:26:39.880Z,19.90
2019-04-30T11:29:14.015Z,20.20
2019-04-30T11:31:56.734Z,20.50
2019-04-30T11:34:28.313Z,20.90
2019-04-30T11:37:25.341Z,21.20
2019-04-30T11:40:05.885Z,21.20
2019-04-30T11:42:46.527Z,21.50
2019-04-30T11:45:24.221Z,21.60
2019-04-30T11:48:04.567Z,21.80
2019-04-30T11:50:44.864Z,21.30
2019-04-30T11:53:30.695Z,21.10
2019-04-30T11:56:09.823Z,21.20
2019-04-30T11:58:48.800Z,21.00
2019-04-30T12:01:22.414Z,20.80
2019-04-30T12:04:03.728Z,20.50
2019-04-30T12:06:28.745Z,20.20
2019-04-30T12:09:20.094Z,20.10
2019-04-30T12:11:51.190Z,20.20
2019-04-30T12:14:30.762Z,20.00
2019-04-30T12:17:06.930Z,20.00
2019-04-30T12:19:40.016Z,20.40
2019-04-30T12:22:16.043Z,20.70
2019-04-30T12:25:12.395Z,21.10
2019-04-30T12:28:00.021Z,21.10
2019-04-30T12:30:23.977Z,20.80
2019-04-30T12:32:50.192Z,20.40
2019-04-30T12:35:42.097Z,20.00
2019-04-30T12:38:19.258Z,19.90
2019-04-30T12:41:03.116Z,19.90
2019-04-30T12:43:49.509Z,20.30
2019-04-30T12:46:21.268Z,20.50
2019-04-30T12:49:01.668Z,20.80
2019-04-30T12:51:58.833Z,20.90
2019-04-30T12:54:51.718Z,21.00
2019-04-30T12:57:55.312Z,20.70
2019-04-30T13:00:21.881Z,20.40
2019-04-30T13:02:53.090Z,20.10
2019-04-30T13:05:29.689Z,20.10
2019-04-30T13:08:05.463Z,19.90
2019-04-30T13:10:40.240Z,19.60
2019-04-30T13:13:19.065Z,19.40
2019-04-30T13:16:05.484Z,19.30
2019-04-30T13:18:39.992Z,19.50
2019-04-30T13:21:23.526Z,20.00
2019-04-30T13:24:15.290Z,20.30
2019-04-30T13:26:42.712Z,20.50
2019-04-30T13:29:31.957Z,20.70
2019-04-30T13:32:05.250Z,20.70
2019-04-30T13:34:47.398Z,20.90
2019-04-30T13:37:22.702Z,20.90
2019-04-30T13:40:12.003Z,20.80
2019-04-30T13:42:51.231Z,20.60
2019-04-30T13:45:25.803Z,20.10
2019-04-30T13:47:59.596Z,19.90
2019-04-30T13:50:33.119Z,19.80
2019-04-30T13:53:09.392Z,20.00
2019-04-30T13:55:45.478Z,20.10
2019-04-30T13:58:14.969Z,20.50
2019-04-30T14:00:49.435Z,20.70
2019-04-30T14:03:32.866Z,21.00
2019-04-30T14:06:09.107Z,20.90
2019-04-30T14:08:59.693Z,20.60
2019-04-30T14:11:53.075Z,20.40
2019-04-30T14:14:39.519Z,20.10
2019-04-30T14:17:09.464Z,19.90
2019-04-30T14:19:47.931Z,19.60
2019-04-30T14:22:23.165Z,19.50
2019-04-30T14:25:06.207Z,19.20
2019-04-30T14:27:49.324Z,19.30
2019-04-30T14:30:20.499Z,19.40
2019-04-30T14:32:52.807Z,19.70
2019-04-30T14:35:24.460Z,20.00
2019-04-30T14:38:05.189Z,20.20
2019-04-30T14:40:39.963Z,20.30
2019-04-30T14:43:22.476Z,20.60
2019-04-30T14:46:33.190Z,20.70
2019-04-30T14:49:41.655Z,20.60
2019-04-30T14:52:24.007Z,20.30
2019-04-30T14:55:15.009Z,20.10
2019-04-30T14:58:10.795Z,19.90
2019-04-30T15:03:32.551Z,19.50
2019-04-30T15:06:10.215Z,19.30
2019-04-30T15:08:44.522Z,19.20
2019-04-30T15:11:16.252Z,19.10
2019-04-30T15:14:09.203Z,19.30
2019-04-30T15:16:46.280Z,19.50
2019-04-30T15:19:15.444Z,19.60
2019-04-30T15:21:48.032Z,19.70
2019-04-30T15:24:29.746Z,19.80
2019-04-30T15:27:02.112Z,20.00
2019-04-30T15:29:34.406Z,19.90
2019-04-30T15:32:08.670Z,19.90
2019-04-30T15:34:42.391Z,19.70
2019-04-30T15:37:23.665Z,19.60
2019-04-30T15:39:49.050Z,19.40
2019-04-30T15:42:26.742Z,19.20
2019-04-30T15:45:00.076Z,19.20
2019-04-30T15:47:32.155Z,19.20
2019-04-30T15:50:09.786Z,19.20
2019-04-30T15:52:40.286Z,19.20
2019-04-30T15:55:13.720Z,19.20
2019-04-30T15:58:04.303Z,19.30
2019-04-30T16:00:39.351Z,19.40
2019-04-30T16:03:16.258Z,19.50
2019-04-30T16:05:49.448Z,19.50
2019-04-30T16:08:39.011Z,19.50
2019-04-30T16:11:32.157Z,19.50
2019-04-30T16:14:18.596Z,19.50
2019-04-30T16:17:24.960Z,19.40
2019-04-30T16:20:01.038Z,19.40
2019-04-30T16:23:09.215Z,19.40
2019-04-30T16:25:43.922Z,19.30
2019-04-30T16:28:19.478Z,19.30
2019-04-30T16:30:59.647Z,19.20
2019-04-30T16:33:29.420Z,19.00
2019-04-30T16:36:12.553Z,18.90
2019-04-30T16:38:44.600Z,18.90
2019-04-30T16:45:05.311Z,18.70
2019-04-30T16:49:39.571Z,18.50
2019-04-30T16:51:14.594Z,18.50
2019-04-30T16:53:41.885Z,18.40
2019-04-30T16:56:20.316Z,18.30
2019-04-30T17:34:58.763Z,16.80
2019-04-30T17:37:31.510Z,16.60
2019-04-30T17:43:39.440Z,16.30
2019-04-30T17:46:09.224Z,16.10
2019-04-30T17:48:39.474Z,16.00
2019-04-30T17:51:11.006Z,15.80
2019-04-30T17:54:05.265Z,15.70
2019-04-30T17:56:37.564Z,15.60
2019-04-30T17:59:44.958Z,15.50
2019-04-30T18:02:16.230Z,15.40
2019-04-30T18:05:15.982Z,15.20
2019-04-30T18:11:41.814Z,14.90
2019-04-30T18:14:21.077Z,14.70
2019-04-30T18:16:54.500Z,14.60
2019-04-30T18:19:57.407Z,14.50
2019-04-30T18:22:45.812Z,14.40
2019-04-30T18:25:53.879Z,14.30
2019-04-30T18:28:32.411Z,14.20
2019-04-30T18:31:15.787Z,14.10
2019-04-30T18:33:59.807Z,14.00
2019-04-30T18:36:35.021Z,13.90
2019-04-30T18:39:19.685Z,13.80
2019-04-30T18:42:02.902Z,13.70
2019-04-30T18:44:39.013Z,13.60
2019-04-30T18:47:14.306Z,13.50
2019-04-30T18:49:53.459Z,13.40
2019-04-30T18:52:29.414Z,13.40
2019-04-30T18:55:19.250Z,13.30
2019-04-30T18:57:35.113Z,13.20
2019-04-30T19:00:07.078Z,13.10
2019-04-30T19:02:40.466Z,13.00
2019-04-30T19:05:19.057Z,12.90
2019-04-30T19:07:59.087Z,12.90
2019-04-30T19:10:46.960Z,12.70
2019-04-30T19:13:44.568Z,12.70
2019-04-30T19:16:34.297Z,12.60
2019-04-30T19:19:29.790Z,12.50
2019-04-30T19:21:59.610Z,12.40
2019-04-30T19:24:32.492Z,12.40
2019-04-30T19:27:08.666Z,12.30
2019-04-30T19:29:43.712Z,12.30
2019-04-30T19:32:30.299Z,12.30
2019-04-30T19:35:14.888Z,12.20
2019-04-30T19:38:12.594Z,12.10
2019-04-30T19:40:54.420Z,12.00
2019-04-30T19:43:33.127Z,11.90
2019-04-30T19:46:13.397Z,11.70
2019-04-30T19:48:50.441Z,11.60
2019-04-30T19:51:23.589Z,11.60
2019-04-30T19:53:59.852Z,11.50
2019-04-30T19:56:39.231Z,11.40
2019-04-30T19:59:13.031Z,11.30
2019-04-30T20:01:48.846Z,11.20
2019-04-30T20:04:52.441Z,11.20
2019-04-30T20:06:58.983Z,11.20
2019-04-30T20:09:32.079Z,11.10
2019-04-30T20:12:03.403Z,11.00
2019-04-30T20:14:34.513Z,11.00
2019-04-30T20:17:19.004Z,10.90
2019-04-30T20:19:51.273Z,10.80
2019-04-30T20:22:29.139Z,10.80
2019-04-30T20:25:05.384Z,10.70
2019-04-30T20:27:40.327Z,10.60
2019-04-30T20:30:12.878Z,10.60
2019-04-30T20:32:46.146Z,10.50
2019-04-30T20:35:26.731Z,10.40
2019-04-30T20:38:19.360Z,10.40
2019-04-30T20:40:59.479Z,10.40
2019-04-30T20:43:23.100Z,10.40
2019-04-30T20:45:52.821Z,10.30
2019-04-30T20:48:22.528Z,10.20
2019-04-30T20:50:53.411Z,10.20
2019-04-30T20:53:23.218Z,10.00
2019-04-30T20:55:52.949Z,9.90
2019-04-30T20:58:28.208Z,9.90
2019-04-30T21:01:06.390Z,9.80
2019-04-30T21:03:35.195Z,9.70
2019-04-30T21:06:09.531Z,9.60
2019-04-30T21:08:42.090Z,9.60
2019-04-30T21:11:15.708Z,9.60
2019-04-30T21:13:50.360Z,9.50
2019-04-30T21:16:21.634Z,9.50
2019-04-30T21:18:53.311Z,9.50
2019-04-30T21:21:28.700Z,9.50
2019-04-30T21:23:59.374Z,9.40
2019-04-30T21:26:30.628Z,9.40
2019-04-30T21:29:11.181Z,9.40
2019-04-30T21:31:46.982Z,9.30
2019-04-30T21:34:40.981Z,9.30
2019-04-30T21:37:09.406Z,9.20
2019-04-30T21:39:42.006Z,9.20
2019-04-30T21:42:17.133Z,9.20
2019-04-30T21:45:32.330Z,9.20
2019-04-30T21:47:18.542Z,9.10
2019-04-30T21:49:49.445Z,9.10
2019-04-30T21:52:21.041Z,9.00
2019-04-30T21:54:53.853Z,9.00
2019-04-30T21:57:26.957Z,8.90
2019-04-30T21:59:58.867Z,8.90
2019-04-30T22:02:31.095Z,8.90
2019-04-30T22:05:00.760Z,8.80
2019-04-30T22:07:30.361Z,8.80
2019-04-30T22:10:00.170Z,8.80
2019-04-30T22:12:34.378Z,8.80
2019-04-30T22:15:07.098Z,8.70
2019-04-30T22:17:40.930Z,8.70
2019-04-30T22:20:10.294Z,8.70
2019-04-30T22:22:45.537Z,8.60
2019-04-30T22:25:15.280Z,8.60
2019-04-30T22:27:44.922Z,8.50
2019-04-30T22:30:17.613Z,8.50
2019-04-30T22:32:49.707Z,8.50
2019-04-30T22:35:39.340Z,8.50
2019-04-30T22:38:11.941Z,8.40
2019-04-30T22:40:43.207Z,8.40
2019-04-30T22:43:12.995Z,8.30
2019-04-30T22:45:52.219Z,8.30
2019-04-30T22:48:24.499Z,8.30
2019-04-30T22:50:54.153Z,8.30
2019-04-30T22:53:25.804Z,8.30
2019-04-30T22:55:56.709Z,8.30
2019-04-30T22:58:27.997Z,8.40
2019-04-30T23:01:09.523Z,8.40
2019-04-30T23:03:42.378Z,8.50
2019-04-30T23:06:12.007Z,8.50
2019-04-30T23:08:43.923Z,8.70
2019-04-30T23:11:14.749Z,8.70
2019-04-30T23:13:50.347Z,8.70
2019-04-30T23:16:25.510Z,8.80
2019-04-30T23:18:55.145Z,8.80
2019-04-30T23:21:32.252Z,8.80
2019-04-30T23:24:02.987Z,8.70
2019-04-30T23:26:39.502Z,8.70
2019-04-30T23:29:22.383Z,8.60
2019-04-30T23:31:41.855Z,8.60
2019-04-30T23:34:17.716Z,8.50
2019-04-30T23:36:45.407Z,8.50
2019-04-30T23:39:22.348Z,8.40
2019-04-30T23:42:00.090Z,8.40
2019-04-30T23:44:33.358Z,8.30
2019-04-30T23:47:10.187Z,8.30
2019-04-30T23:49:41.566Z,8.30
2019-04-30T23:52:11.155Z,8.20
2019-04-30T23:54:51.528Z,8.20
2019-04-30T23:57:26.937Z,8.20
2019-04-30T23:59:56.609Z,8.20
